sensor_id;sensor_type;location;lat;lon;timestamp;P1;durP1;ratioP1;P2;durP2;ratioP2
12958;SDS011;6544;51.666;6.634;2023-09-30T00:00:58;12.32;;;5.25;;
12958;SDS011;6544;51.666;6.634;2023-09-30T00:03:25;22.27;;;5.82;;
12958;SDS011;6544;51.666;6.634;2023-09-30T00:05:52;13.25;;;5.25;;
12958;SDS011;6544;51.666;6.634;2023-09-30T00:08:19;13.48;;;5.72;;
12958;SDS011;6544;51.666;6.634;2023-09-30T00:10:47;14.70;;;5.40;;
12958;SDS011;6544;51.666;6.634;2023-09-30T00:13:14;15.35;;;5.35;;
12958;SDS011;6544;51.666;6.634;2023-09-30T00:15:41;15.45;;;6.03;;
12958;SDS011;6544;51.666;6.634;2023-09-30T00:18:08;12.25;;;5.53;;
12958;SDS011;6544;51.666;6.634;2023-09-30T00:20:35;14.60;;;5.85;;
12958;SDS011;6544;51.666;6.634;2023-09-30T00:23:02;14.50;;;6.00;;
12958;SDS011;6544;51.666;6.634;2023-09-30T00:25:31;13.35;;;5.18;;
12958;SDS011;6544;51.666;6.634;2023-09-30T00:27:59;14.52;;;5.93;;
12958;SDS011;6544;51.666;6.634;2023-09-30T00:30:26;14.82;;;5.50;;
12958;SDS011;6544;51.666;6.634;2023-09-30T00:32:53;13.95;;;5.53;;
12958;SDS011;6544;51.666;6.634;2023-09-30T00:35:20;14.93;;;5.53;;
12958;SDS011;6544;51.666;6.634;2023-09-30T00:37:47;14.27;;;5.90;;
12958;SDS011;6544;51.666;6.634;2023-09-30T00:40:14;13.55;;;5.25;;
12958;SDS011;6544;51.666;6.634;2023-09-30T00:42:41;16.23;;;5.22;;
12958;SDS011;6544;51.666;6.634;2023-09-30T00:45:10;12.73;;;5.10;;
12958;SDS011;6544;51.666;6.634;2023-09-30T00:47:38;13.98;;;5.03;;
12958;SDS011;6544;51.666;6.634;2023-09-30T00:50:05;13.60;;;5.40;;
12958;SDS011;6544;51.666;6.634;2023-09-30T00:52:33;14.65;;;4.93;;
12958;SDS011;6544;51.666;6.634;2023-09-30T00:55:02;15.68;;;5.88;;
12958;SDS011;6544;51.666;6.634;2023-09-30T00:57:30;17.25;;;5.85;;
12958;SDS011;6544;51.666;6.634;2023-09-30T00:59:57;14.55;;;5.65;;
12958;SDS011;6544;51.666;6.634;2023-09-30T01:02:27;17.23;;;5.68;;
12958;SDS011;6544;51.666;6.634;2023-09-30T01:04:54;16.23;;;6.20;;
12958;SDS011;6544;51.666;6.634;2023-09-30T01:07:22;14.50;;;5.63;;
12958;SDS011;6544;51.666;6.634;2023-09-30T01:09:48;11.70;;;5.28;;
12958;SDS011;6544;51.666;6.634;2023-09-30T01:12:16;14.70;;;5.85;;
12958;SDS011;6544;51.666;6.634;2023-09-30T01:14:43;14.73;;;6.40;;
12958;SDS011;6544;51.666;6.634;2023-09-30T01:17:09;13.27;;;6.38;;
12958;SDS011;6544;51.666;6.634;2023-09-30T01:19:40;15.18;;;6.47;;
12958;SDS011;6544;51.666;6.634;2023-09-30T01:22:09;15.20;;;6.07;;
12958;SDS011;6544;51.666;6.634;2023-09-30T01:24:38;14.30;;;5.72;;
12958;SDS011;6544;51.666;6.634;2023-09-30T01:27:06;13.75;;;6.63;;
12958;SDS011;6544;51.666;6.634;2023-09-30T01:29:33;13.85;;;5.53;;
12958;SDS011;6544;51.666;6.634;2023-09-30T01:32:00;14.63;;;5.90;;
12958;SDS011;6544;51.666;6.634;2023-09-30T01:34:27;15.32;;;6.13;;
12958;SDS011;6544;51.666;6.634;2023-09-30T01:36:53;15.02;;;6.00;;
12958;SDS011;6544;51.666;6.634;2023-09-30T01:39:22;12.77;;;5.72;;
12958;SDS011;6544;51.666;6.634;2023-09-30T01:41:49;15.00;;;5.57;;
12958;SDS011;6544;51.666;6.634;2023-09-30T01:44:15;13.88;;;5.90;;
12958;SDS011;6544;51.666;6.634;2023-09-30T01:46:42;14.73;;;6.43;;
12958;SDS011;6544;51.666;6.634;2023-09-30T01:49:09;10.48;;;5.57;;
12958;SDS011;6544;51.666;6.634;2023-09-30T01:51:36;11.32;;;5.60;;
12958;SDS011;6544;51.666;6.634;2023-09-30T01:54:03;13.48;;;5.82;;
12958;SDS011;6544;51.666;6.634;2023-09-30T01:56:31;13.25;;;5.90;;
12958;SDS011;6544;51.666;6.634;2023-09-30T01:58:59;14.82;;;6.07;;
12958;SDS011;6544;51.666;6.634;2023-09-30T02:01:26;11.52;;;5.28;;
12958;SDS011;6544;51.666;6.634;2023-09-30T02:03:53;12.32;;;5.60;;
12958;SDS011;6544;51.666;6.634;2023-09-30T02:06:19;12.07;;;5.45;;
12958;SDS011;6544;51.666;6.634;2023-09-30T02:08:46;15.73;;;5.93;;
12958;SDS011;6544;51.666;6.634;2023-09-30T02:11:13;12.07;;;5.90;;
12958;SDS011;6544;51.666;6.634;2023-09-30T02:13:43;11.88;;;5.50;;
12958;SDS011;6544;51.666;6.634;2023-09-30T02:16:13;16.15;;;6.20;;
12958;SDS011;6544;51.666;6.634;2023-09-30T02:18:42;13.95;;;5.75;;
12958;SDS011;6544;51.666;6.634;2023-09-30T02:21:11;14.68;;;6.50;;
12958;SDS011;6544;51.666;6.634;2023-09-30T02:23:38;12.77;;;6.35;;
12958;SDS011;6544;51.666;6.634;2023-09-30T02:26:05;15.40;;;5.82;;
12958;SDS011;6544;51.666;6.634;2023-09-30T02:28:32;13.32;;;5.88;;
12958;SDS011;6544;51.666;6.634;2023-09-30T02:31:00;14.85;;;6.10;;
12958;SDS011;6544;51.666;6.634;2023-09-30T02:33:27;16.35;;;5.88;;
12958;SDS011;6544;51.666;6.634;2023-09-30T02:35:56;15.70;;;6.57;;
12958;SDS011;6544;51.666;6.634;2023-09-30T02:38:23;16.25;;;6.97;;
12958;SDS011;6544;51.666;6.634;2023-09-30T02:40:50;14.13;;;6.68;;
12958;SDS011;6544;51.666;6.634;2023-09-30T02:43:17;15.00;;;6.53;;
12958;SDS011;6544;51.666;6.634;2023-09-30T02:45:45;12.93;;;6.72;;
12958;SDS011;6544;51.666;6.634;2023-09-30T02:48:13;13.53;;;6.30;;
12958;SDS011;6544;51.666;6.634;2023-09-30T02:50:41;11.60;;;5.82;;
12958;SDS011;6544;51.666;6.634;2023-09-30T02:53:10;10.80;;;5.63;;
12958;SDS011;6544;51.666;6.634;2023-09-30T02:55:37;12.25;;;6.05;;
12958;SDS011;6544;51.666;6.634;2023-09-30T02:58:03;13.63;;;6.43;;
12958;SDS011;6544;51.666;6.634;2023-09-30T03:00:31;12.55;;;6.00;;
12958;SDS011;6544;51.666;6.634;2023-09-30T03:02:59;11.70;;;5.85;;
12958;SDS011;6544;51.666;6.634;2023-09-30T03:05:29;12.20;;;5.80;;
12958;SDS011;6544;51.666;6.634;2023-09-30T03:07:58;15.48;;;6.00;;
12958;SDS011;6544;51.666;6.634;2023-09-30T03:10:25;17.10;;;6.60;;
12958;SDS011;6544;51.666;6.634;2023-09-30T03:12:52;13.32;;;5.93;;
12958;SDS011;6544;51.666;6.634;2023-09-30T03:15:19;16.95;;;6.97;;
12958;SDS011;6544;51.666;6.634;2023-09-30T03:17:47;18.27;;;7.50;;
12958;SDS011;6544;51.666;6.634;2023-09-30T03:20:14;14.50;;;6.60;;
12958;SDS011;6544;51.666;6.634;2023-09-30T03:22:46;14.20;;;6.40;;
12958;SDS011;6544;51.666;6.634;2023-09-30T03:25:14;10.23;;;5.57;;
12958;SDS011;6544;51.666;6.634;2023-09-30T03:27:42;12.55;;;6.03;;
12958;SDS011;6544;51.666;6.634;2023-09-30T03:30:10;11.98;;;6.28;;
12958;SDS011;6544;51.666;6.634;2023-09-30T03:32:37;11.63;;;5.93;;
12958;SDS011;6544;51.666;6.634;2023-09-30T03:35:05;12.30;;;6.32;;
12958;SDS011;6544;51.666;6.634;2023-09-30T03:37:33;14.95;;;6.05;;
12958;SDS011;6544;51.666;6.634;2023-09-30T03:40:02;13.68;;;5.57;;
12958;SDS011;6544;51.666;6.634;2023-09-30T03:42:38;11.85;;;5.82;;
12958;SDS011;6544;51.666;6.634;2023-09-30T03:45:08;11.57;;;6.07;;
12958;SDS011;6544;51.666;6.634;2023-09-30T03:47:35;12.95;;;6.55;;
12958;SDS011;6544;51.666;6.634;2023-09-30T03:50:03;13.70;;;5.93;;
12958;SDS011;6544;51.666;6.634;2023-09-30T03:52:31;11.93;;;5.80;;
12958;SDS011;6544;51.666;6.634;2023-09-30T03:54:59;11.85;;;5.80;;
12958;SDS011;6544;51.666;6.634;2023-09-30T03:57:30;13.10;;;5.85;;
12958;SDS011;6544;51.666;6.634;2023-09-30T03:59:57;12.80;;;6.07;;
12958;SDS011;6544;51.666;6.634;2023-09-30T04:02:23;14.32;;;6.40;;
12958;SDS011;6544;51.666;6.634;2023-09-30T04:04:50;10.50;;;6.10;;
12958;SDS011;6544;51.666;6.634;2023-09-30T04:07:19;11.30;;;5.78;;
12958;SDS011;6544;51.666;6.634;2023-09-30T04:09:46;15.40;;;6.28;;
12958;SDS011;6544;51.666;6.634;2023-09-30T04:12:13;13.27;;;6.75;;
12958;SDS011;6544;51.666;6.634;2023-09-30T04:14:43;11.73;;;6.15;;
12958;SDS011;6544;51.666;6.634;2023-09-30T04:17:10;10.38;;;5.70;;
12958;SDS011;6544;51.666;6.634;2023-09-30T04:19:37;14.98;;;6.80;;
12958;SDS011;6544;51.666;6.634;2023-09-30T04:22:04;14.38;;;6.47;;
12958;SDS011;6544;51.666;6.634;2023-09-30T04:24:31;13.07;;;6.47;;
12958;SDS011;6544;51.666;6.634;2023-09-30T04:26:57;13.52;;;6.53;;
12958;SDS011;6544;51.666;6.634;2023-09-30T04:29:28;12.57;;;6.72;;
12958;SDS011;6544;51.666;6.634;2023-09-30T04:31:59;16.55;;;6.95;;
12958;SDS011;6544;51.666;6.634;2023-09-30T04:34:26;15.80;;;6.75;;
12958;SDS011;6544;51.666;6.634;2023-09-30T04:36:53;12.30;;;6.85;;
12958;SDS011;6544;51.666;6.634;2023-09-30T04:39:20;14.07;;;6.70;;
12958;SDS011;6544;51.666;6.634;2023-09-30T04:41:47;12.85;;;6.80;;
12958;SDS011;6544;51.666;6.634;2023-09-30T04:44:14;14.90;;;6.75;;
12958;SDS011;6544;51.666;6.634;2023-09-30T04:46:42;14.07;;;6.32;;
12958;SDS011;6544;51.666;6.634;2023-09-30T04:49:12;12.65;;;6.90;;
12958;SDS011;6544;51.666;6.634;2023-09-30T04:51:40;12.60;;;6.65;;
12958;SDS011;6544;51.666;6.634;2023-09-30T04:54:07;13.07;;;6.32;;
12958;SDS011;6544;51.666;6.634;2023-09-30T04:56:35;12.32;;;6.55;;
12958;SDS011;6544;51.666;6.634;2023-09-30T04:59:03;11.60;;;6.35;;
12958;SDS011;6544;51.666;6.634;2023-09-30T05:01:30;12.23;;;6.35;;
12958;SDS011;6544;51.666;6.634;2023-09-30T05:03:57;14.48;;;6.88;;
12958;SDS011;6544;51.666;6.634;2023-09-30T05:06:25;14.73;;;6.38;;
12958;SDS011;6544;51.666;6.634;2023-09-30T05:08:52;10.73;;;6.53;;
12958;SDS011;6544;51.666;6.634;2023-09-30T05:11:20;13.43;;;6.53;;
12958;SDS011;6544;51.666;6.634;2023-09-30T05:13:47;15.43;;;7.30;;
12958;SDS011;6544;51.666;6.634;2023-09-30T05:16:14;12.18;;;6.70;;
12958;SDS011;6544;51.666;6.634;2023-09-30T05:18:41;12.73;;;7.00;;
12958;SDS011;6544;51.666;6.634;2023-09-30T05:21:08;12.05;;;6.75;;
12958;SDS011;6544;51.666;6.634;2023-09-30T05:23:36;13.48;;;6.63;;
12958;SDS011;6544;51.666;6.634;2023-09-30T05:26:03;12.30;;;7.32;;
12958;SDS011;6544;51.666;6.634;2023-09-30T05:28:31;13.65;;;6.28;;
12958;SDS011;6544;51.666;6.634;2023-09-30T05:30:59;14.18;;;7.35;;
12958;SDS011;6544;51.666;6.634;2023-09-30T05:33:26;14.90;;;7.35;;
12958;SDS011;6544;51.666;6.634;2023-09-30T05:35:53;11.90;;;6.90;;
12958;SDS011;6544;51.666;6.634;2023-09-30T05:38:22;14.32;;;7.60;;
12958;SDS011;6544;51.666;6.634;2023-09-30T05:40:51;13.30;;;7.00;;
12958;SDS011;6544;51.666;6.634;2023-09-30T05:43:19;12.85;;;7.32;;
12958;SDS011;6544;51.666;6.634;2023-09-30T05:45:46;12.98;;;7.95;;
12958;SDS011;6544;51.666;6.634;2023-09-30T05:48:19;14.07;;;7.82;;
12958;SDS011;6544;51.666;6.634;2023-09-30T05:50:46;15.35;;;8.13;;
12958;SDS011;6544;51.666;6.634;2023-09-30T05:53:13;13.77;;;7.80;;
12958;SDS011;6544;51.666;6.634;2023-09-30T05:55:40;13.75;;;7.75;;
12958;SDS011;6544;51.666;6.634;2023-09-30T05:58:09;12.95;;;7.75;;
12958;SDS011;6544;51.666;6.634;2023-09-30T06:00:38;12.27;;;7.80;;
12958;SDS011;6544;51.666;6.634;2023-09-30T06:03:07;15.70;;;8.13;;
12958;SDS011;6544;51.666;6.634;2023-09-30T06:05:38;16.40;;;7.88;;
12958;SDS011;6544;51.666;6.634;2023-09-30T06:08:07;14.82;;;7.82;;
12958;SDS011;6544;51.666;6.634;2023-09-30T06:10:39;16.63;;;7.80;;
12958;SDS011;6544;51.666;6.634;2023-09-30T06:13:09;12.52;;;7.68;;
12958;SDS011;6544;51.666;6.634;2023-09-30T06:15:37;12.40;;;7.60;;
12958;SDS011;6544;51.666;6.634;2023-09-30T06:18:07;15.13;;;7.88;;
12958;SDS011;6544;51.666;6.634;2023-09-30T06:20:34;14.70;;;8.20;;
12958;SDS011;6544;51.666;6.634;2023-09-30T06:23:02;17.73;;;8.25;;
12958;SDS011;6544;51.666;6.634;2023-09-30T06:25:29;17.48;;;8.05;;
12958;SDS011;6544;51.666;6.634;2023-09-30T06:27:58;11.32;;;7.72;;
12958;SDS011;6544;51.666;6.634;2023-09-30T06:30:26;13.38;;;8.27;;
12958;SDS011;6544;51.666;6.634;2023-09-30T06:32:55;11.98;;;8.50;;
12958;SDS011;6544;51.666;6.634;2023-09-30T06:35:22;13.13;;;8.52;;
12958;SDS011;6544;51.666;6.634;2023-09-30T06:37:49;18.42;;;10.30;;
12958;SDS011;6544;51.666;6.634;2023-09-30T06:40:16;15.48;;;9.25;;
12958;SDS011;6544;51.666;6.634;2023-09-30T06:42:44;16.55;;;9.10;;
12958;SDS011;6544;51.666;6.634;2023-09-30T06:45:11;16.50;;;9.43;;
12958;SDS011;6544;51.666;6.634;2023-09-30T06:47:42;15.98;;;9.43;;
12958;SDS011;6544;51.666;6.634;2023-09-30T06:50:11;16.65;;;9.52;;
12958;SDS011;6544;51.666;6.634;2023-09-30T06:52:41;19.55;;;9.75;;
12958;SDS011;6544;51.666;6.634;2023-09-30T06:55:10;13.98;;;9.40;;
12958;SDS011;6544;51.666;6.634;2023-09-30T06:57:39;15.30;;;9.80;;
12958;SDS011;6544;51.666;6.634;2023-09-30T07:00:06;17.73;;;9.45;;
12958;SDS011;6544;51.666;6.634;2023-09-30T07:02:34;18.48;;;9.30;;
12958;SDS011;6544;51.666;6.634;2023-09-30T07:05:04;15.43;;;10.07;;
12958;SDS011;6544;51.666;6.634;2023-09-30T07:07:32;14.88;;;10.40;;
12958;SDS011;6544;51.666;6.634;2023-09-30T07:09:59;16.23;;;10.43;;
12958;SDS011;6544;51.666;6.634;2023-09-30T07:12:26;18.65;;;10.48;;
12958;SDS011;6544;51.666;6.634;2023-09-30T07:14:52;17.25;;;10.90;;
12958;SDS011;6544;51.666;6.634;2023-09-30T07:17:22;20.13;;;10.95;;
12958;SDS011;6544;51.666;6.634;2023-09-30T07:19:49;19.42;;;11.05;;
12958;SDS011;6544;51.666;6.634;2023-09-30T07:22:18;19.05;;;11.30;;
12958;SDS011;6544;51.666;6.634;2023-09-30T07:24:45;20.20;;;11.45;;
12958;SDS011;6544;51.666;6.634;2023-09-30T07:27:12;15.85;;;10.45;;
12958;SDS011;6544;51.666;6.634;2023-09-30T07:29:39;16.75;;;11.18;;
12958;SDS011;6544;51.666;6.634;2023-09-30T07:34:33;19.50;;;11.20;;
12958;SDS011;6544;51.666;6.634;2023-09-30T07:37:00;19.65;;;11.68;;
12958;SDS011;6544;51.666;6.634;2023-09-30T07:39:28;15.45;;;10.85;;
12958;SDS011;6544;51.666;6.634;2023-09-30T07:41:55;18.40;;;11.10;;
12958;SDS011;6544;51.666;6.634;2023-09-30T07:44:22;18.00;;;10.82;;
12958;SDS011;6544;51.666;6.634;2023-09-30T07:46:49;19.02;;;11.23;;
12958;SDS011;6544;51.666;6.634;2023-09-30T07:49:17;19.25;;;11.18;;
12958;SDS011;6544;51.666;6.634;2023-09-30T07:51:44;16.50;;;11.25;;
12958;SDS011;6544;51.666;6.634;2023-09-30T07:54:11;17.55;;;11.70;;
12958;SDS011;6544;51.666;6.634;2023-09-30T07:56:39;15.68;;;10.90;;
12958;SDS011;6544;51.666;6.634;2023-09-30T07:59:06;17.83;;;11.18;;
12958;SDS011;6544;51.666;6.634;2023-09-30T08:01:33;19.80;;;10.95;;
12958;SDS011;6544;51.666;6.634;2023-09-30T08:04:00;16.45;;;11.45;;
12958;SDS011;6544;51.666;6.634;2023-09-30T08:06:27;17.33;;;10.68;;
12958;SDS011;6544;51.666;6.634;2023-09-30T08:08:54;14.98;;;10.18;;
12958;SDS011;6544;51.666;6.634;2023-09-30T08:11:21;20.90;;;10.38;;
12958;SDS011;6544;51.666;6.634;2023-09-30T08:13:51;17.73;;;10.13;;
12958;SDS011;6544;51.666;6.634;2023-09-30T08:16:18;14.90;;;9.90;;
12958;SDS011;6544;51.666;6.634;2023-09-30T08:18:45;18.15;;;10.23;;
12958;SDS011;6544;51.666;6.634;2023-09-30T08:21:12;15.35;;;10.23;;
12958;SDS011;6544;51.666;6.634;2023-09-30T08:23:39;16.52;;;10.75;;
12958;SDS011;6544;51.666;6.634;2023-09-30T08:26:06;18.20;;;12.63;;
12958;SDS011;6544;51.666;6.634;2023-09-30T08:28:33;17.88;;;12.35;;
12958;SDS011;6544;51.666;6.634;2023-09-30T08:31:05;19.10;;;10.80;;
12958;SDS011;6544;51.666;6.634;2023-09-30T08:33:32;18.00;;;9.95;;
12958;SDS011;6544;51.666;6.634;2023-09-30T08:36:03;14.93;;;8.93;;
12958;SDS011;6544;51.666;6.634;2023-09-30T08:38:32;13.50;;;8.80;;
12958;SDS011;6544;51.666;6.634;2023-09-30T08:41:00;12.50;;;8.10;;
12958;SDS011;6544;51.666;6.634;2023-09-30T08:43:28;16.02;;;8.82;;
12958;SDS011;6544;51.666;6.634;2023-09-30T08:45:57;12.48;;;9.10;;
12958;SDS011;6544;51.666;6.634;2023-09-30T08:48:27;13.38;;;8.57;;
12958;SDS011;6544;51.666;6.634;2023-09-30T08:50:54;13.65;;;8.38;;
12958;SDS011;6544;51.666;6.634;2023-09-30T08:53:22;11.10;;;8.75;;
12958;SDS011;6544;51.666;6.634;2023-09-30T08:55:50;12.45;;;8.13;;
12958;SDS011;6544;51.666;6.634;2023-09-30T08:58:20;13.15;;;7.95;;
12958;SDS011;6544;51.666;6.634;2023-09-30T09:00:52;12.43;;;7.32;;
12958;SDS011;6544;51.666;6.634;2023-09-30T09:03:20;14.63;;;8.95;;
12958;SDS011;6544;51.666;6.634;2023-09-30T09:05:50;16.50;;;7.88;;
12958;SDS011;6544;51.666;6.634;2023-09-30T09:08:20;13.70;;;7.43;;
12958;SDS011;6544;51.666;6.634;2023-09-30T09:10:58;12.18;;;7.50;;
12958;SDS011;6544;51.666;6.634;2023-09-30T09:13:28;12.15;;;7.32;;
12958;SDS011;6544;51.666;6.634;2023-09-30T09:16:11;11.40;;;7.47;;
12958;SDS011;6544;51.666;6.634;2023-09-30T09:18:38;11.52;;;7.15;;
12958;SDS011;6544;51.666;6.634;2023-09-30T09:21:12;10.23;;;7.03;;
12958;SDS011;6544;51.666;6.634;2023-09-30T09:23:40;10.27;;;6.63;;
12958;SDS011;6544;51.666;6.634;2023-09-30T09:26:07;15.25;;;7.18;;
12958;SDS011;6544;51.666;6.634;2023-09-30T09:28:35;11.00;;;6.43;;
12958;SDS011;6544;51.666;6.634;2023-09-30T09:31:04;10.77;;;6.53;;
12958;SDS011;6544;51.666;6.634;2023-09-30T09:33:46;9.10;;;6.32;;
12958;SDS011;6544;51.666;6.634;2023-09-30T09:36:15;11.00;;;7.03;;
12958;SDS011;6544;51.666;6.634;2023-09-30T09:38:45;14.40;;;6.88;;
12958;SDS011;6544;51.666;6.634;2023-09-30T09:41:15;12.13;;;6.72;;
12958;SDS011;6544;51.666;6.634;2023-09-30T09:43:42;13.15;;;7.03;;
12958;SDS011;6544;51.666;6.634;2023-09-30T09:46:10;13.43;;;7.50;;
12958;SDS011;6544;51.666;6.634;2023-09-30T09:48:37;9.98;;;6.60;;
12958;SDS011;6544;51.666;6.634;2023-09-30T09:51:04;10.70;;;6.13;;
12958;SDS011;6544;51.666;6.634;2023-09-30T09:53:35;10.60;;;6.13;;
12958;SDS011;6544;51.666;6.634;2023-09-30T09:56:03;9.90;;;5.82;;
12958;SDS011;6544;51.666;6.634;2023-09-30T09:58:32;10.68;;;6.45;;
12958;SDS011;6544;51.666;6.634;2023-09-30T10:01:00;12.25;;;6.75;;
12958;SDS011;6544;51.666;6.634;2023-09-30T10:03:28;11.10;;;6.40;;
12958;SDS011;6544;51.666;6.634;2023-09-30T10:05:55;12.95;;;6.30;;
12958;SDS011;6544;51.666;6.634;2023-09-30T10:08:27;10.73;;;6.65;;
12958;SDS011;6544;51.666;6.634;2023-09-30T10:10:58;10.38;;;6.60;;
12958;SDS011;6544;51.666;6.634;2023-09-30T10:19:15;11.13;;;5.93;;
12958;SDS011;6544;51.666;6.634;2023-09-30T10:24:48;12.80;;;6.80;;
12958;SDS011;6544;51.666;6.634;2023-09-30T10:27:30;9.73;;;5.90;;
12958;SDS011;6544;51.666;6.634;2023-09-30T10:30:01;9.35;;;6.30;;
12958;SDS011;6544;51.666;6.634;2023-09-30T10:35:44;8.98;;;5.90;;
12958;SDS011;6544;51.666;6.634;2023-09-30T10:41:07;9.25;;;5.53;;
12958;SDS011;6544;51.666;6.634;2023-09-30T10:43:36;8.00;;;5.70;;
12958;SDS011;6544;51.666;6.634;2023-09-30T10:46:05;8.75;;;5.53;;
12958;SDS011;6544;51.666;6.634;2023-09-30T10:51:59;10.48;;;5.63;;
12958;SDS011;6544;51.666;6.634;2023-09-30T10:54:27;10.75;;;5.63;;
12958;SDS011;6544;51.666;6.634;2023-09-30T10:56:56;7.88;;;5.32;;
12958;SDS011;6544;51.666;6.634;2023-09-30T10:59:27;10.50;;;5.38;;
12958;SDS011;6544;51.666;6.634;2023-09-30T11:01:56;8.35;;;4.80;;
12958;SDS011;6544;51.666;6.634;2023-09-30T11:04:23;9.25;;;5.07;;
12958;SDS011;6544;51.666;6.634;2023-09-30T11:06:52;7.00;;;4.75;;
12958;SDS011;6544;51.666;6.634;2023-09-30T11:09:19;8.55;;;4.95;;
12958;SDS011;6544;51.666;6.634;2023-09-30T11:11:48;10.30;;;5.32;;
12958;SDS011;6544;51.666;6.634;2023-09-30T11:14:16;6.95;;;4.80;;
12958;SDS011;6544;51.666;6.634;2023-09-30T11:16:45;10.85;;;5.03;;
12958;SDS011;6544;51.666;6.634;2023-09-30T11:19:12;12.65;;;4.95;;
12958;SDS011;6544;51.666;6.634;2023-09-30T11:21:40;9.60;;;5.20;;
12958;SDS011;6544;51.666;6.634;2023-09-30T11:24:08;6.70;;;4.80;;
12958;SDS011;6544;51.666;6.634;2023-09-30T11:26:35;9.43;;;5.40;;
12958;SDS011;6544;51.666;6.634;2023-09-30T11:29:07;9.13;;;5.00;;
12958;SDS011;6544;51.666;6.634;2023-09-30T11:31:36;6.50;;;4.55;;
12958;SDS011;6544;51.666;6.634;2023-09-30T11:34:05;8.25;;;4.95;;
12958;SDS011;6544;51.666;6.634;2023-09-30T11:36:34;8.50;;;4.50;;
12958;SDS011;6544;51.666;6.634;2023-09-30T11:39:02;10.05;;;4.53;;
12958;SDS011;6544;51.666;6.634;2023-09-30T11:41:33;8.13;;;4.50;;
12958;SDS011;6544;51.666;6.634;2023-09-30T11:44:03;10.50;;;4.80;;
12958;SDS011;6544;51.666;6.634;2023-09-30T11:46:33;6.97;;;4.22;;
12958;SDS011;6544;51.666;6.634;2023-09-30T11:49:23;7.35;;;4.00;;
12958;SDS011;6544;51.666;6.634;2023-09-30T11:51:52;7.95;;;4.15;;
12958;SDS011;6544;51.666;6.634;2023-09-30T11:54:19;7.32;;;3.60;;
12958;SDS011;6544;51.666;6.634;2023-09-30T11:56:47;6.72;;;3.30;;
12958;SDS011;6544;51.666;6.634;2023-09-30T11:59:15;6.50;;;3.20;;
12958;SDS011;6544;51.666;6.634;2023-09-30T12:01:44;9.63;;;2.90;;
12958;SDS011;6544;51.666;6.634;2023-09-30T12:04:13;6.97;;;2.90;;
12958;SDS011;6544;51.666;6.634;2023-09-30T12:06:43;6.68;;;3.50;;
12958;SDS011;6544;51.666;6.634;2023-09-30T12:09:11;7.55;;;3.85;;
12958;SDS011;6544;51.666;6.634;2023-09-30T12:11:39;6.93;;;3.60;;
12958;SDS011;6544;51.666;6.634;2023-09-30T12:14:08;7.55;;;3.90;;
12958;SDS011;6544;51.666;6.634;2023-09-30T12:16:36;7.20;;;3.80;;
12958;SDS011;6544;51.666;6.634;2023-09-30T12:19:03;8.95;;;3.67;;
12958;SDS011;6544;51.666;6.634;2023-09-30T12:21:31;6.65;;;3.22;;
12958;SDS011;6544;51.666;6.634;2023-09-30T12:24:00;8.30;;;3.78;;
12958;SDS011;6544;51.666;6.634;2023-09-30T12:26:28;5.40;;;3.10;;
12958;SDS011;6544;51.666;6.634;2023-09-30T12:28:55;6.32;;;4.22;;
12958;SDS011;6544;51.666;6.634;2023-09-30T12:31:22;8.13;;;4.30;;
12958;SDS011;6544;51.666;6.634;2023-09-30T12:33:49;9.68;;;4.22;;
12958;SDS011;6544;51.666;6.634;2023-09-30T12:36:17;6.93;;;3.13;;
12958;SDS011;6544;51.666;6.634;2023-09-30T12:38:44;6.53;;;3.17;;
12958;SDS011;6544;51.666;6.634;2023-09-30T12:41:12;7.47;;;3.00;;
12958;SDS011;6544;51.666;6.634;2023-09-30T12:43:41;5.88;;;2.67;;
12958;SDS011;6544;51.666;6.634;2023-09-30T12:46:08;5.57;;;2.53;;
12958;SDS011;6544;51.666;6.634;2023-09-30T12:48:38;7.15;;;2.75;;
12958;SDS011;6544;51.666;6.634;2023-09-30T12:51:05;5.15;;;2.75;;
12958;SDS011;6544;51.666;6.634;2023-09-30T12:53:34;5.50;;;3.15;;
12958;SDS011;6544;51.666;6.634;2023-09-30T12:56:00;8.00;;;3.53;;
12958;SDS011;6544;51.666;6.634;2023-09-30T12:58:29;4.65;;;2.90;;
12958;SDS011;6544;51.666;6.634;2023-09-30T13:00:56;6.50;;;3.10;;
12958;SDS011;6544;51.666;6.634;2023-09-30T13:03:23;4.15;;;2.65;;
12958;SDS011;6544;51.666;6.634;2023-09-30T13:05:50;6.97;;;3.83;;
12958;SDS011;6544;51.666;6.634;2023-09-30T13:08:17;6.70;;;3.80;;
12958;SDS011;6544;51.666;6.634;2023-09-30T13:10:44;7.63;;;3.72;;
12958;SDS011;6544;51.666;6.634;2023-09-30T13:13:13;10.32;;;3.55;;
12958;SDS011;6544;51.666;6.634;2023-09-30T13:15:41;8.20;;;3.42;;
12958;SDS011;6544;51.666;6.634;2023-09-30T13:18:08;5.03;;;3.00;;
12958;SDS011;6544;51.666;6.634;2023-09-30T13:20:35;8.45;;;3.38;;
12958;SDS011;6544;51.666;6.634;2023-09-30T13:23:02;6.10;;;3.05;;
12958;SDS011;6544;51.666;6.634;2023-09-30T13:25:29;7.63;;;3.38;;
12958;SDS011;6544;51.666;6.634;2023-09-30T13:27:56;9.00;;;4.70;;
12958;SDS011;6544;51.666;6.634;2023-09-30T13:30:23;9.50;;;4.28;;
12958;SDS011;6544;51.666;6.634;2023-09-30T13:32:51;6.72;;;3.47;;
12958;SDS011;6544;51.666;6.634;2023-09-30T13:35:18;7.45;;;3.28;;
12958;SDS011;6544;51.666;6.634;2023-09-30T13:37:45;7.50;;;3.70;;
12958;SDS011;6544;51.666;6.634;2023-09-30T13:40:12;6.82;;;3.53;;
12958;SDS011;6544;51.666;6.634;2023-09-30T13:42:39;7.22;;;3.25;;
12958;SDS011;6544;51.666;6.634;2023-09-30T13:45:08;5.97;;;3.40;;
12958;SDS011;6544;51.666;6.634;2023-09-30T13:47:36;5.50;;;3.40;;
12958;SDS011;6544;51.666;6.634;2023-09-30T13:50:05;7.75;;;4.05;;
12958;SDS011;6544;51.666;6.634;2023-09-30T13:52:33;7.32;;;3.97;;
12958;SDS011;6544;51.666;6.634;2023-09-30T13:55:00;6.97;;;3.88;;
12958;SDS011;6544;51.666;6.634;2023-09-30T13:57:29;8.93;;;4.45;;
12958;SDS011;6544;51.666;6.634;2023-09-30T13:59:56;12.05;;;4.03;;
12958;SDS011;6544;51.666;6.634;2023-09-30T14:02:23;7.75;;;4.18;;
12958;SDS011;6544;51.666;6.634;2023-09-30T14:04:50;7.00;;;3.75;;
12958;SDS011;6544;51.666;6.634;2023-09-30T14:07:19;6.90;;;3.47;;
12958;SDS011;6544;51.666;6.634;2023-09-30T14:09:47;6.57;;;4.07;;
12958;SDS011;6544;51.666;6.634;2023-09-30T14:12:13;7.20;;;3.72;;
12958;SDS011;6544;51.666;6.634;2023-09-30T14:14:41;7.03;;;4.15;;
12958;SDS011;6544;51.666;6.634;2023-09-30T14:17:07;7.93;;;3.70;;
12958;SDS011;6544;51.666;6.634;2023-09-30T14:19:35;9.35;;;4.45;;
12958;SDS011;6544;51.666;6.634;2023-09-30T14:22:03;7.80;;;4.13;;
12958;SDS011;6544;51.666;6.634;2023-09-30T14:24:32;6.50;;;3.92;;
12958;SDS011;6544;51.666;6.634;2023-09-30T14:26:59;5.75;;;3.42;;
12958;SDS011;6544;51.666;6.634;2023-09-30T14:29:26;6.43;;;3.83;;
12958;SDS011;6544;51.666;6.634;2023-09-30T14:31:54;6.47;;;4.10;;
12958;SDS011;6544;51.666;6.634;2023-09-30T14:34:22;5.93;;;3.85;;
12958;SDS011;6544;51.666;6.634;2023-09-30T14:36:49;7.63;;;4.13;;
12958;SDS011;6544;51.666;6.634;2023-09-30T14:39:16;9.45;;;4.32;;
12958;SDS011;6544;51.666;6.634;2023-09-30T14:41:45;7.72;;;4.50;;
12958;SDS011;6544;51.666;6.634;2023-09-30T14:44:12;8.70;;;4.03;;
12958;SDS011;6544;51.666;6.634;2023-09-30T14:46:39;7.43;;;4.05;;
12958;SDS011;6544;51.666;6.634;2023-09-30T14:49:06;8.32;;;4.47;;
12958;SDS011;6544;51.666;6.634;2023-09-30T14:51:33;7.35;;;3.60;;
12958;SDS011;6544;51.666;6.634;2023-09-30T14:54:00;6.70;;;4.50;;
12958;SDS011;6544;51.666;6.634;2023-09-30T14:56:28;6.82;;;4.57;;
12958;SDS011;6544;51.666;6.634;2023-09-30T14:58:56;9.77;;;4.72;;
12958;SDS011;6544;51.666;6.634;2023-09-30T15:01:24;6.90;;;4.57;;
12958;SDS011;6544;51.666;6.634;2023-09-30T15:03:52;8.68;;;4.03;;
12958;SDS011;6544;51.666;6.634;2023-09-30T15:06:19;9.27;;;4.85;;
12958;SDS011;6544;51.666;6.634;2023-09-30T15:08:49;8.43;;;4.70;;
12958;SDS011;6544;51.666;6.634;2023-09-30T15:11:16;8.30;;;4.53;;
12958;SDS011;6544;51.666;6.634;2023-09-30T15:13:43;5.60;;;4.10;;
12958;SDS011;6544;51.666;6.634;2023-09-30T15:16:16;6.70;;;4.18;;